createdAt,value
2023-05-03T00:00:44.736Z,0.00
2023-05-03T00:01:44.763Z,0.00
2023-05-03T00:02:45.135Z,0.00
2023-05-03T00:03:44.701Z,0.00
2023-05-03T00:04:44.735Z,0.00
2023-05-03T00:05:44.704Z,0.00
2023-05-03T00:06:44.709Z,0.00
2023-05-03T00:07:44.665Z,0.00
2023-05-03T00:08:44.650Z,0.00
2023-05-03T00:09:44.654Z,0.00
2023-05-03T00:10:44.646Z,0.00
2023-05-03T00:11:44.686Z,0.00
2023-05-03T00:12:44.624Z,0.00
2023-05-03T00:13:44.596Z,0.00
2023-05-03T00:14:44.600Z,0.00
2023-05-03T00:15:44.576Z,0.00
2023-05-03T00:16:44.605Z,0.00
2023-05-03T00:17:44.618Z,0.00
2023-05-03T00:18:44.549Z,0.00
2023-05-03T00:19:44.551Z,0.00
2023-05-03T00:20:44.519Z,0.00
2023-05-03T00:21:44.507Z,0.00
2023-05-03T00:22:44.519Z,0.00
2023-05-03T00:23:44.488Z,0.00
2023-05-03T00:24:44.493Z,0.00
2023-05-03T00:25:44.478Z,0.00
2023-05-03T00:26:44.458Z,0.00
2023-05-03T00:27:44.455Z,0.00
2023-05-03T00:28:44.456Z,0.00
2023-05-03T00:29:44.455Z,0.00
2023-05-03T00:30:44.450Z,0.00
2023-05-03T00:31:44.446Z,0.00
2023-05-03T00:32:44.422Z,0.00
2023-05-03T00:33:44.388Z,0.00
2023-05-03T00:34:44.388Z,0.00
2023-05-03T00:35:44.372Z,0.00
2023-05-03T00:36:44.358Z,0.00
2023-05-03T00:37:44.347Z,0.00
2023-05-03T00:38:44.339Z,0.00
2023-05-03T00:39:44.333Z,0.00
2023-05-03T00:40:44.312Z,0.00
2023-05-03T00:41:44.300Z,0.00
2023-05-03T00:42:44.293Z,0.00
2023-05-03T00:43:44.296Z,0.00
2023-05-03T00:44:44.348Z,0.00
2023-05-03T00:45:44.279Z,0.00
2023-05-03T00:46:44.296Z,0.00
2023-05-03T00:47:44.363Z,0.00
2023-05-03T00:48:44.234Z,0.00
2023-05-03T00:49:44.257Z,0.00
2023-05-03T00:50:44.213Z,0.00
2023-05-03T00:51:44.199Z,0.00
2023-05-03T00:52:44.193Z,0.00
2023-05-03T00:53:44.176Z,0.00
2023-05-03T00:54:44.177Z,0.00
2023-05-03T00:55:44.152Z,0.00
2023-05-03T00:56:51.605Z,0.00
2023-05-03T00:57:45.140Z,0.00
2023-05-03T00:58:44.131Z,0.00
2023-05-03T00:59:44.121Z,0.00
2023-05-03T01:00:44.128Z,0.00
2023-05-03T01:01:44.139Z,0.00
2023-05-03T01:02:44.182Z,0.00
2023-05-03T01:03:44.182Z,0.00
2023-05-03T01:04:44.094Z,0.00
2023-05-03T01:05:44.050Z,0.00
2023-05-03T01:06:44.077Z,0.00
2023-05-03T01:07:44.031Z,0.00
2023-05-03T01:08:44.025Z,0.00
2023-05-03T01:09:44.021Z,0.00
2023-05-03T01:10:44.000Z,0.00
2023-05-03T01:11:43.992Z,0.00
2023-05-03T01:12:43.980Z,0.00
2023-05-03T01:13:43.996Z,0.00
2023-05-03T01:14:43.973Z,0.00
2023-05-03T01:15:43.977Z,0.00
2023-05-03T01:16:44.010Z,0.00
2023-05-03T01:17:43.930Z,0.00
2023-05-03T01:18:43.923Z,0.00
2023-05-03T01:19:43.915Z,0.00
2023-05-03T01:20:43.913Z,0.00
2023-05-03T01:21:43.881Z,0.00
2023-05-03T01:22:43.877Z,0.00
2023-05-03T01:23:43.876Z,0.00
2023-05-03T01:24:43.862Z,0.00
2023-05-03T01:25:43.842Z,0.00
2023-05-03T01:26:43.832Z,0.00
2023-05-03T01:27:43.870Z,0.00
2023-05-03T01:28:43.813Z,0.00
2023-05-03T01:29:43.811Z,0.00
2023-05-03T01:30:43.792Z,0.00
2023-05-03T01:31:43.802Z,0.00
2023-05-03T01:32:43.846Z,0.00
2023-05-03T01:33:43.757Z,0.00
2023-05-03T01:34:44.877Z,0.00
2023-05-03T01:35:44.859Z,0.00
2023-05-03T01:36:44.852Z,0.00
2023-05-03T01:37:44.845Z,0.00
2023-05-03T01:38:44.831Z,0.00
2023-05-03T01:39:44.856Z,0.00
2023-05-03T01:40:44.815Z,0.00
2023-05-03T01:41:44.804Z,0.00
2023-05-03T01:42:44.794Z,0.00
2023-05-03T01:43:44.783Z,0.00
2023-05-03T01:44:44.785Z,0.00
2023-05-03T01:45:44.772Z,0.00
2023-05-03T01:46:44.753Z,0.00
2023-05-03T01:47:44.770Z,0.00
2023-05-03T01:48:44.746Z,0.00
2023-05-03T01:49:44.756Z,0.00
2023-05-03T01:50:44.751Z,0.00
2023-05-03T01:51:44.704Z,0.00
2023-05-03T01:52:44.692Z,0.00
2023-05-03T01:53:44.681Z,0.00
2023-05-03T01:54:44.709Z,0.00
2023-05-03T01:55:44.702Z,0.00
2023-05-03T01:56:44.663Z,0.00
2023-05-03T01:57:44.650Z,0.00
2023-05-03T01:58:44.647Z,0.00
2023-05-03T01:59:44.661Z,0.00
2023-05-03T02:00:44.641Z,0.00
2023-05-03T02:01:44.676Z,0.00
2023-05-03T02:02:44.626Z,0.00
2023-05-03T02:03:45.619Z,0.00
2023-05-03T02:04:44.607Z,0.00
2023-05-03T02:05:44.584Z,0.00
2023-05-03T02:06:44.635Z,0.00
2023-05-03T02:07:44.553Z,0.00
2023-05-03T02:08:44.543Z,0.00
2023-05-03T02:09:44.538Z,0.00
2023-05-03T02:10:44.516Z,0.00
2023-05-03T02:11:44.514Z,0.00
2023-05-03T02:12:44.503Z,0.00
2023-05-03T02:13:44.492Z,0.00
2023-05-03T02:14:44.488Z,0.00
2023-05-03T02:15:44.470Z,0.00
2023-05-03T02:16:44.507Z,0.00
2023-05-03T02:17:44.475Z,0.00
2023-05-03T02:18:44.443Z,0.00
2023-05-03T02:19:44.456Z,0.00
2023-05-03T02:20:44.433Z,0.00
2023-05-03T02:21:44.408Z,0.00
2023-05-03T02:22:44.398Z,0.00
2023-05-03T02:23:44.402Z,0.00
2023-05-03T02:24:44.409Z,0.00
2023-05-03T02:25:44.382Z,0.00
2023-05-03T02:26:44.378Z,0.00
2023-05-03T02:27:44.354Z,0.00
2023-05-03T02:28:44.346Z,0.00
2023-05-03T02:29:44.348Z,0.00
2023-05-03T02:30:44.375Z,0.00
2023-05-03T02:31:44.318Z,0.00
2023-05-03T02:32:44.351Z,0.00
2023-05-03T02:33:44.295Z,0.00
2023-05-03T02:34:44.299Z,0.00
2023-05-03T02:35:44.287Z,0.00
2023-05-03T02:36:44.263Z,0.00
2023-05-03T02:37:44.259Z,0.00
2023-05-03T02:38:44.255Z,0.00
2023-05-03T02:39:44.253Z,0.00
2023-05-03T02:40:44.248Z,0.00
2023-05-03T02:41:44.229Z,0.00
2023-05-03T02:42:44.218Z,0.00
2023-05-03T02:43:44.195Z,0.00
2023-05-03T02:44:44.217Z,0.00
2023-05-03T02:45:44.189Z,0.00
2023-05-03T02:46:44.203Z,0.00
2023-05-03T02:47:44.204Z,0.00
2023-05-03T02:48:44.161Z,0.00
2023-05-03T02:49:44.168Z,0.00
2023-05-03T02:50:44.136Z,0.00
2023-05-03T02:51:44.128Z,0.00
2023-05-03T02:52:44.124Z,0.00
2023-05-03T02:53:44.116Z,0.00
2023-05-03T02:54:44.114Z,0.00
2023-05-03T02:55:44.093Z,0.00
2023-05-03T02:56:44.079Z,0.00
2023-05-03T02:57:44.068Z,0.00
2023-05-03T02:58:44.071Z,0.00
2023-05-03T02:59:44.060Z,0.00
2023-05-03T03:00:44.048Z,0.00
2023-05-03T03:01:44.106Z,0.00
2023-05-03T03:02:44.168Z,0.00
2023-05-03T03:03:44.101Z,0.00
2023-05-03T03:04:44.025Z,0.00
2023-05-03T03:05:43.990Z,0.00
2023-05-03T03:06:44.014Z,0.00
2023-05-03T03:07:44.987Z,0.00
2023-05-03T03:08:43.967Z,0.00
2023-05-03T03:09:43.955Z,0.00
2023-05-03T03:10:43.961Z,0.00
2023-05-03T03:11:43.933Z,0.00
2023-05-03T03:12:43.943Z,0.00
2023-05-03T03:13:43.922Z,0.00
2023-05-03T03:14:43.912Z,0.00
2023-05-03T03:15:43.935Z,0.00
2023-05-03T03:16:43.887Z,0.00
2023-05-03T03:17:43.953Z,0.00
2023-05-03T03:18:43.867Z,0.00
2023-05-03T03:19:43.865Z,0.00
2023-05-03T03:20:43.872Z,0.00
2023-05-03T03:21:43.839Z,0.00
2023-05-03T03:22:43.842Z,0.00
2023-05-03T03:23:43.821Z,0.00
2023-05-03T03:24:43.809Z,0.00
2023-05-03T03:25:43.795Z,0.00
2023-05-03T03:26:43.789Z,0.00
2023-05-03T03:27:43.787Z,0.00
2023-05-03T03:28:43.774Z,0.00
2023-05-03T03:29:43.761Z,0.00
2023-05-03T03:30:43.773Z,0.00
2023-05-03T03:31:43.791Z,0.00
2023-05-03T03:32:43.832Z,0.00
2023-05-03T03:33:43.717Z,0.00
2023-05-03T03:34:43.742Z,0.00
2023-05-03T03:35:43.704Z,0.00
2023-05-03T03:36:43.699Z,0.00
2023-05-03T03:37:43.690Z,0.00
2023-05-03T03:38:43.682Z,0.00
2023-05-03T03:39:43.663Z,0.00
2023-05-03T03:40:43.669Z,0.00
2023-05-03T03:41:43.644Z,0.00
2023-05-03T03:42:43.643Z,0.00
2023-05-03T03:43:43.622Z,0.00
2023-05-03T03:44:43.650Z,0.00
2023-05-03T03:45:43.607Z,0.00
2023-05-03T03:46:43.679Z,0.00
2023-05-03T03:47:43.612Z,0.00
2023-05-03T03:48:43.575Z,0.00
2023-05-03T03:49:43.591Z,0.00
2023-05-03T03:50:43.563Z,5.62
2023-05-03T03:51:43.556Z,5.62
2023-05-03T03:52:43.549Z,5.62
2023-05-03T03:53:43.551Z,5.62
2023-05-03T03:54:43.537Z,5.62
2023-05-03T03:55:43.514Z,5.62
2023-05-03T03:56:43.538Z,5.62
2023-05-03T03:57:43.496Z,5.62
2023-05-03T03:58:43.500Z,5.62
2023-05-03T03:59:43.496Z,11.25
2023-05-03T04:00:43.478Z,11.25
2023-05-03T04:01:43.494Z,11.25
2023-05-03T04:02:43.529Z,11.25
2023-05-03T04:03:43.553Z,11.25
2023-05-03T04:04:43.445Z,11.25
2023-05-03T04:05:43.418Z,11.25
2023-05-03T04:06:43.464Z,16.88
2023-05-03T04:07:43.424Z,16.88
2023-05-03T04:08:43.417Z,16.88
2023-05-03T04:09:43.411Z,16.88
2023-05-03T04:10:43.382Z,16.88
2023-05-03T04:11:43.369Z,16.88
2023-05-03T04:12:43.352Z,22.50
2023-05-03T04:13:43.362Z,22.50
2023-05-03T04:14:43.345Z,22.50
2023-05-03T04:15:43.344Z,22.50
2023-05-03T04:16:43.368Z,22.50
2023-05-03T04:17:43.360Z,28.12
2023-05-03T04:18:43.299Z,28.12
2023-05-03T04:19:43.281Z,28.12
2023-05-03T04:20:43.301Z,28.12
2023-05-03T04:21:43.271Z,28.12
2023-05-03T04:22:43.260Z,33.75
2023-05-03T04:23:43.241Z,33.75
2023-05-03T04:24:43.231Z,33.75
2023-05-03T04:25:43.241Z,33.75
2023-05-03T04:26:43.213Z,39.38
2023-05-03T04:27:43.216Z,39.38
2023-05-03T04:28:43.207Z,39.38
2023-05-03T04:29:43.197Z,39.38
2023-05-03T04:30:43.248Z,45.00
2023-05-03T04:31:43.169Z,45.00
2023-05-03T04:32:43.217Z,45.00
2023-05-03T04:33:43.147Z,45.00
2023-05-03T04:34:43.138Z,50.62
2023-05-03T04:35:43.142Z,50.62
2023-05-03T04:36:43.112Z,50.62
2023-05-03T04:37:43.108Z,50.62
2023-05-03T04:38:43.116Z,56.25
2023-05-03T04:39:43.092Z,56.25
2023-05-03T04:40:43.095Z,56.25
2023-05-03T04:41:43.086Z,61.88
2023-05-03T04:42:43.069Z,61.88
2023-05-03T04:43:43.070Z,61.88
2023-05-03T04:44:43.055Z,67.50
2023-05-03T04:45:43.031Z,67.50
2023-05-03T04:46:43.054Z,67.50
2023-05-03T04:47:43.077Z,73.12
2023-05-03T04:48:43.004Z,73.12
2023-05-03T04:49:42.983Z,78.75
2023-05-03T04:50:42.990Z,78.75
2023-05-03T04:51:42.983Z,78.75
2023-05-03T04:52:42.967Z,84.38
2023-05-03T04:53:42.956Z,84.38
2023-05-03T04:54:42.951Z,84.38
2023-05-03T04:55:42.961Z,90.00
2023-05-03T04:56:43.002Z,90.00
2023-05-03T04:57:42.930Z,95.62
2023-05-03T04:58:42.914Z,95.62
2023-05-03T04:59:42.891Z,95.62
2023-05-03T05:00:42.877Z,101.25
2023-05-03T05:01:42.981Z,101.25
2023-05-03T05:02:42.889Z,101.25
2023-05-03T05:03:42.965Z,101.25
2023-05-03T05:04:42.840Z,101.25
2023-05-03T05:05:42.832Z,106.88
2023-05-03T05:06:42.829Z,106.88
2023-05-03T05:07:42.887Z,106.88
2023-05-03T05:08:42.791Z,112.50
2023-05-03T05:09:42.786Z,112.50
2023-05-03T05:10:42.789Z,118.12
2023-05-03T05:11:42.762Z,118.12
2023-05-03T05:12:42.751Z,123.75
2023-05-03T05:13:42.750Z,123.75
2023-05-03T05:14:42.742Z,123.75
2023-05-03T05:15:42.729Z,129.38
2023-05-03T05:16:42.774Z,129.38
2023-05-03T05:17:42.784Z,135.00
2023-05-03T05:18:42.684Z,135.00
2023-05-03T05:19:42.690Z,140.62
2023-05-03T05:20:42.673Z,140.62
2023-05-03T05:21:42.674Z,140.62
2023-05-03T05:22:42.642Z,146.25
2023-05-03T05:23:42.728Z,146.25
2023-05-03T05:24:42.631Z,151.88
2023-05-03T05:25:42.633Z,151.88
2023-05-03T05:26:42.626Z,157.50
2023-05-03T05:27:42.607Z,157.50
2023-05-03T05:28:42.597Z,157.50
2023-05-03T05:29:42.598Z,163.12
2023-05-03T05:30:42.572Z,163.12
2023-05-03T05:31:42.602Z,163.12
2023-05-03T05:32:42.601Z,168.75
2023-05-03T05:33:42.532Z,168.75
2023-05-03T05:34:45.557Z,174.38
2023-05-03T05:35:43.528Z,174.38
2023-05-03T05:36:42.536Z,174.38
2023-05-03T05:37:42.491Z,180.00
2023-05-03T05:38:42.491Z,180.00
2023-05-03T05:39:42.556Z,185.62
2023-05-03T05:40:42.485Z,185.62
2023-05-03T05:41:42.545Z,185.62
2023-05-03T05:42:42.478Z,185.62
2023-05-03T05:43:42.455Z,191.25
2023-05-03T05:44:42.452Z,191.25
2023-05-03T05:45:42.476Z,196.88
2023-05-03T05:46:42.496Z,196.88
2023-05-03T05:47:42.453Z,202.50
2023-05-03T05:48:42.419Z,202.50
2023-05-03T05:49:42.403Z,208.12
2023-05-03T05:50:42.380Z,208.12
2023-05-03T05:51:42.409Z,213.75
2023-05-03T05:52:42.380Z,213.75
2023-05-03T05:53:42.356Z,213.75
2023-05-03T05:54:42.347Z,219.38
2023-05-03T05:55:42.352Z,219.38
2023-05-03T05:56:42.332Z,225.00
2023-05-03T05:57:42.344Z,230.62
2023-05-03T05:58:42.322Z,230.62
2023-05-03T05:59:42.318Z,230.62
2023-05-03T06:00:42.283Z,230.62
2023-05-03T06:01:42.294Z,236.25
2023-05-03T06:02:42.417Z,236.25
2023-05-03T06:03:42.249Z,236.25
2023-05-03T06:04:42.292Z,241.88
2023-05-03T06:05:42.551Z,241.88
2023-05-03T06:06:42.251Z,241.88
2023-05-03T06:07:42.195Z,247.50
2023-05-03T06:08:42.186Z,247.50
2023-05-03T06:09:42.208Z,247.50
2023-05-03T06:10:42.288Z,253.12
2023-05-03T06:11:42.173Z,253.12
2023-05-03T06:12:42.161Z,253.12
2023-05-03T06:13:42.157Z,258.75
2023-05-03T06:14:48.963Z,258.75
2023-05-03T06:15:44.207Z,258.75
2023-05-03T06:16:42.187Z,258.75
2023-05-03T06:17:42.245Z,264.38
2023-05-03T06:18:42.201Z,264.38
2023-05-03T06:19:44.412Z,264.38
2023-05-03T06:20:42.148Z,270.00
2023-05-03T06:21:42.112Z,270.00
2023-05-03T06:22:42.125Z,270.00
2023-05-03T06:23:42.083Z,270.00
2023-05-03T06:24:42.116Z,270.00
2023-05-03T06:25:42.078Z,275.62
2023-05-03T06:26:42.098Z,275.62
2023-05-03T06:27:42.075Z,275.62
2023-05-03T06:28:42.062Z,275.62
2023-05-03T06:29:42.029Z,275.62
2023-05-03T06:30:42.144Z,281.25
2023-05-03T06:31:42.101Z,281.25
2023-05-03T06:32:42.061Z,281.25
2023-05-03T06:33:42.022Z,281.25
2023-05-03T06:34:41.991Z,281.25
2023-05-03T06:35:41.955Z,286.88
2023-05-03T06:36:41.997Z,286.88
2023-05-03T06:37:41.919Z,286.88
2023-05-03T06:38:41.924Z,286.88
2023-05-03T06:39:41.943Z,286.88
2023-05-03T06:40:41.949Z,286.88
2023-05-03T06:41:41.914Z,286.88
2023-05-03T06:42:41.845Z,286.88
2023-05-03T06:43:41.949Z,286.88
2023-05-03T06:44:41.829Z,286.88
2023-05-03T06:45:41.828Z,286.88
2023-05-03T06:46:41.846Z,286.88
2023-05-03T06:47:41.838Z,292.50
2023-05-03T06:48:41.842Z,292.50
2023-05-03T06:49:41.768Z,292.50
2023-05-03T06:50:41.763Z,292.50
2023-05-03T06:51:41.773Z,292.50
2023-05-03T06:52:41.735Z,292.50
2023-05-03T06:53:41.731Z,292.50
2023-05-03T06:54:41.741Z,292.50
2023-05-03T06:55:41.720Z,292.50
2023-05-03T06:56:41.711Z,292.50
2023-05-03T06:57:41.749Z,292.50
2023-05-03T06:58:41.703Z,292.50
2023-05-03T06:59:42.620Z,298.12
2023-05-03T07:00:41.686Z,298.12
2023-05-03T07:01:41.757Z,298.12
2023-05-03T07:02:41.780Z,298.12
2023-05-03T07:03:42.097Z,298.12
2023-05-03T07:04:42.652Z,298.12
2023-05-03T07:05:41.670Z,298.12
2023-05-03T07:06:55.394Z,298.12
2023-05-03T07:07:43.628Z,298.12
2023-05-03T07:08:41.626Z,298.12
2023-05-03T07:09:43.501Z,298.12
2023-05-03T07:10:42.591Z,303.75
2023-05-03T07:11:41.604Z,303.75
2023-05-03T07:12:41.618Z,303.75
2023-05-03T07:13:41.573Z,303.75
2023-05-03T07:14:41.590Z,303.75
2023-05-03T07:15:41.632Z,303.75
2023-05-03T07:16:41.571Z,303.75
2023-05-03T07:17:41.586Z,303.75
2023-05-03T07:18:42.563Z,309.38
2023-05-03T07:19:41.530Z,309.38
2023-05-03T07:20:41.517Z,309.38
2023-05-03T07:21:41.495Z,309.38
2023-05-03T07:22:41.509Z,309.38
2023-05-03T07:23:41.489Z,309.38
2023-05-03T07:24:41.484Z,309.38
2023-05-03T07:25:41.450Z,309.38
2023-05-03T07:26:43.642Z,309.38
2023-05-03T07:27:41.463Z,309.38
2023-05-03T07:28:41.454Z,309.38
2023-05-03T07:29:41.530Z,309.38
2023-05-03T07:30:41.390Z,309.38
2023-05-03T07:31:41.715Z,309.38
2023-05-03T07:32:41.467Z,315.00
2023-05-03T07:33:41.489Z,315.00
2023-05-03T07:34:41.344Z,315.00
2023-05-03T07:35:41.346Z,315.00
2023-05-03T07:36:41.421Z,315.00
2023-05-03T07:37:41.340Z,315.00
2023-05-03T07:38:41.356Z,315.00
2023-05-03T07:39:41.331Z,315.00
2023-05-03T07:40:41.305Z,315.00
2023-05-03T07:41:41.326Z,315.00
2023-05-03T07:42:41.274Z,315.00
2023-05-03T07:43:41.525Z,315.00
2023-05-03T07:44:41.291Z,315.00
2023-05-03T07:45:41.322Z,315.00
2023-05-03T07:46:41.269Z,315.00
2023-05-03T07:47:41.287Z,315.00
2023-05-03T07:48:42.708Z,315.00
2023-05-03T07:49:41.242Z,315.00
2023-05-03T07:50:41.235Z,315.00
2023-05-03T07:51:41.215Z,320.62
2023-05-03T07:52:41.198Z,320.62
2023-05-03T07:53:41.178Z,320.62
2023-05-03T07:54:41.178Z,320.62
2023-05-03T07:55:41.185Z,320.62
2023-05-03T07:56:41.142Z,320.62
2023-05-03T07:57:41.170Z,320.62
2023-05-03T07:58:42.460Z,320.62
2023-05-03T07:59:42.125Z,320.62
2023-05-03T08:00:41.130Z,320.62
2023-05-03T08:01:41.119Z,320.62
2023-05-03T08:02:41.281Z,320.62
2023-05-03T08:03:41.327Z,320.62
2023-05-03T08:04:41.334Z,320.62
2023-05-03T08:05:41.141Z,320.62
2023-05-03T08:06:41.158Z,320.62
2023-05-03T08:07:41.056Z,320.62
2023-05-03T08:08:41.014Z,320.62
2023-05-03T08:09:41.030Z,320.62
2023-05-03T08:10:41.046Z,320.62
2023-05-03T08:11:43.767Z,320.62
2023-05-03T08:12:41.026Z,320.62
2023-05-03T08:13:40.990Z,320.62
2023-05-03T08:14:40.961Z,320.62
2023-05-03T08:15:41.005Z,320.62
2023-05-03T08:16:41.014Z,320.62
2023-05-03T08:17:40.965Z,320.62
2023-05-03T08:18:40.944Z,320.62
2023-05-03T08:19:41.125Z,320.62
2023-05-03T08:20:40.921Z,320.62
2023-05-03T08:21:40.911Z,320.62
2023-05-03T08:22:40.872Z,320.62
2023-05-03T08:23:40.887Z,320.62
2023-05-03T08:24:40.867Z,320.62
2023-05-03T08:25:40.861Z,320.62
2023-05-03T08:26:41.916Z,320.62
2023-05-03T08:27:40.859Z,320.62
2023-05-03T08:28:40.820Z,320.62
2023-05-03T08:29:40.817Z,320.62
2023-05-03T08:30:40.831Z,320.62
2023-05-03T08:31:40.835Z,320.62
2023-05-03T08:32:41.741Z,320.62
2023-05-03T08:33:40.804Z,320.62
2023-05-03T08:34:40.797Z,320.62
2023-05-03T08:35:40.808Z,320.62
2023-05-03T08:36:40.770Z,320.62
2023-05-03T08:37:40.837Z,320.62
2023-05-03T08:38:40.781Z,320.62
2023-05-03T08:39:40.708Z,326.25
2023-05-03T08:40:40.717Z,320.62
2023-05-03T08:41:40.706Z,326.25
2023-05-03T08:42:40.739Z,320.62
2023-05-03T08:43:40.714Z,320.62
2023-05-03T08:44:40.670Z,315.00
2023-05-03T08:45:40.711Z,315.00
2023-05-03T08:46:40.695Z,315.00
2023-05-03T08:47:40.680Z,315.00
2023-05-03T08:48:40.616Z,309.38
2023-05-03T08:49:40.661Z,315.00
2023-05-03T08:50:40.616Z,320.62
2023-05-03T08:51:40.629Z,320.62
2023-05-03T08:52:40.730Z,320.62
2023-05-03T08:53:40.557Z,320.62
2023-05-03T08:54:40.555Z,320.62
2023-05-03T08:55:40.584Z,320.62
2023-05-03T08:56:40.563Z,320.62
2023-05-03T08:57:40.624Z,320.62
2023-05-03T08:58:40.557Z,320.62
2023-05-03T08:59:40.533Z,320.62
2023-05-03T09:00:40.508Z,320.62
2023-05-03T09:01:40.593Z,320.62
2023-05-03T09:02:40.624Z,320.62
2023-05-03T09:03:40.554Z,320.62
2023-05-03T09:04:40.474Z,320.62
2023-05-03T09:05:40.477Z,320.62
2023-05-03T09:06:40.486Z,320.62
2023-05-03T09:07:40.448Z,320.62
2023-05-03T09:08:40.393Z,320.62
2023-05-03T09:09:40.445Z,320.62
2023-05-03T09:10:40.459Z,320.62
2023-05-03T09:11:40.424Z,320.62
2023-05-03T09:12:40.461Z,320.62
2023-05-03T09:13:40.385Z,320.62
2023-05-03T09:14:40.514Z,320.62
2023-05-03T09:15:40.386Z,320.62
2023-05-03T09:16:40.410Z,320.62
2023-05-03T09:17:40.396Z,320.62
2023-05-03T09:18:40.323Z,320.62
2023-05-03T09:19:40.344Z,320.62
2023-05-03T09:20:40.367Z,320.62
2023-05-03T09:21:40.305Z,320.62
2023-05-03T09:22:40.290Z,320.62
2023-05-03T09:23:40.379Z,320.62
2023-05-03T09:24:40.301Z,320.62
2023-05-03T09:25:40.249Z,320.62
2023-05-03T09:26:40.361Z,320.62
2023-05-03T09:27:40.250Z,320.62
2023-05-03T09:28:41.243Z,320.62
2023-05-03T09:29:40.221Z,320.62
2023-05-03T09:30:40.246Z,320.62
2023-05-03T09:31:40.240Z,315.00
2023-05-03T09:32:40.208Z,320.62
2023-05-03T09:33:40.195Z,320.62
2023-05-03T09:34:40.225Z,320.62
2023-05-03T09:35:40.158Z,320.62
2023-05-03T09:36:40.184Z,320.62
2023-05-03T09:37:40.171Z,315.00
2023-05-03T09:38:40.146Z,315.00
2023-05-03T09:39:40.166Z,315.00
2023-05-03T09:40:40.138Z,315.00
2023-05-03T09:41:40.102Z,315.00
2023-05-03T09:42:40.110Z,315.00
2023-05-03T09:43:40.092Z,315.00
2023-05-03T09:44:40.097Z,315.00
2023-05-03T09:45:40.097Z,315.00
2023-05-03T09:46:40.048Z,315.00
2023-05-03T09:47:40.132Z,315.00
2023-05-03T09:48:40.038Z,315.00
2023-05-03T09:49:40.069Z,315.00
2023-05-03T09:50:40.074Z,315.00
2023-05-03T09:51:40.031Z,315.00
2023-05-03T09:52:39.983Z,315.00
2023-05-03T09:53:39.990Z,315.00
2023-05-03T09:54:39.959Z,320.62
2023-05-03T09:55:39.983Z,320.62
2023-05-03T09:56:39.981Z,320.62
2023-05-03T09:57:39.930Z,326.25
2023-05-03T09:58:39.981Z,320.62
2023-05-03T09:59:40.057Z,331.88
2023-05-03T10:00:39.901Z,337.50
2023-05-03T10:01:39.982Z,331.88
2023-05-03T10:02:40.023Z,326.25
2023-05-03T10:03:39.958Z,326.25
2023-05-03T10:04:39.914Z,320.62
2023-05-03T10:05:39.858Z,320.62
2023-05-03T10:06:39.909Z,320.62
2023-05-03T10:07:39.855Z,320.62
2023-05-03T10:08:39.843Z,320.62
2023-05-03T10:09:39.817Z,315.00
2023-05-03T10:10:39.824Z,315.00
2023-05-03T10:11:39.775Z,315.00
2023-05-03T10:12:39.820Z,315.00
2023-05-03T10:13:39.764Z,315.00
2023-05-03T10:14:39.800Z,320.62
2023-05-03T10:15:39.837Z,315.00
2023-05-03T10:16:39.793Z,315.00
2023-05-03T10:18:40.742Z,315.00
2023-05-03T10:19:39.830Z,320.62
2023-05-03T10:20:39.731Z,320.62
2023-05-03T10:21:39.673Z,326.25
2023-05-03T10:22:39.713Z,326.25
2023-05-03T10:23:39.680Z,309.38
2023-05-03T10:24:39.679Z,326.25
2023-05-03T10:25:39.649Z,326.25
2023-05-03T10:26:39.634Z,326.25
2023-05-03T10:27:39.654Z,331.88
2023-05-03T10:28:39.649Z,331.88
2023-05-03T10:29:39.607Z,326.25
2023-05-03T10:30:39.591Z,320.62
2023-05-03T10:31:39.631Z,320.62
2023-05-03T10:32:39.649Z,331.88
2023-05-03T10:33:39.550Z,326.25
2023-05-03T10:34:39.527Z,331.88
2023-05-03T10:35:39.538Z,331.88
2023-05-03T10:36:48.948Z,331.88
2023-05-03T10:37:41.557Z,331.88
2023-05-03T10:38:45.611Z,337.50
2023-05-03T10:39:40.516Z,337.50
2023-05-03T10:40:39.496Z,320.62
2023-05-03T10:41:39.452Z,320.62
2023-05-03T10:42:39.458Z,331.88
2023-05-03T10:43:39.437Z,343.12
2023-05-03T10:44:39.448Z,343.12
2023-05-03T10:45:39.422Z,348.75
2023-05-03T10:46:39.446Z,348.75
2023-05-03T10:47:39.429Z,348.75
2023-05-03T10:48:39.428Z,348.75
2023-05-03T10:49:39.367Z,354.38
2023-05-03T10:50:39.442Z,360.00
2023-05-03T10:51:39.402Z,354.38
2023-05-03T10:52:39.417Z,348.75
2023-05-03T10:53:39.399Z,354.38
2023-05-03T10:54:39.356Z,348.75
2023-05-03T10:55:39.343Z,348.75
2023-05-03T10:56:39.349Z,348.75
2023-05-03T10:57:40.337Z,343.12
2023-05-03T10:58:40.361Z,331.88
2023-05-03T10:59:39.395Z,337.50
2023-05-03T11:00:39.330Z,348.75
2023-05-03T11:01:39.337Z,348.75
2023-05-03T11:02:39.320Z,354.38
2023-05-03T11:03:39.277Z,360.00
2023-05-03T11:04:39.308Z,360.00
2023-05-03T11:05:41.019Z,354.38
2023-05-03T11:06:39.259Z,360.00
2023-05-03T11:07:39.199Z,360.00
2023-05-03T11:08:39.192Z,360.00
2023-05-03T11:09:39.226Z,354.38
2023-05-03T11:10:39.185Z,354.38
2023-05-03T11:11:39.143Z,354.38
2023-05-03T11:12:39.154Z,348.75
2023-05-03T11:13:39.230Z,348.75
2023-05-03T11:14:39.140Z,343.12
2023-05-03T11:15:39.130Z,337.50
2023-05-03T11:16:39.177Z,337.50
2023-05-03T11:17:39.156Z,337.50
2023-05-03T11:18:39.129Z,331.88
2023-05-03T11:19:39.049Z,331.88
2023-05-03T11:20:40.057Z,326.25
2023-05-03T11:21:39.040Z,326.25
2023-05-03T11:22:39.073Z,326.25
2023-05-03T11:23:39.105Z,320.62
2023-05-03T11:24:39.029Z,326.25
2023-05-03T11:25:39.016Z,331.88
2023-05-03T11:26:39.016Z,331.88
2023-05-03T11:27:39.054Z,331.88
2023-05-03T11:28:38.992Z,337.50
2023-05-03T11:29:39.039Z,337.50
2023-05-03T11:30:38.993Z,337.50
2023-05-03T11:31:39.080Z,337.50
2023-05-03T11:32:39.065Z,326.25
2023-05-03T11:33:39.062Z,326.25
2023-05-03T11:34:38.965Z,326.25
2023-05-03T11:35:38.955Z,320.62
2023-05-03T11:36:38.946Z,320.62
2023-05-03T11:37:38.914Z,320.62
2023-05-03T11:38:39.011Z,320.62
2023-05-03T11:39:38.939Z,320.62
2023-05-03T11:40:38.909Z,320.62
2023-05-03T11:41:38.932Z,315.00
2023-05-03T11:42:38.878Z,315.00
2023-05-03T11:43:38.874Z,315.00
2023-05-03T11:44:38.872Z,315.00
2023-05-03T11:45:38.915Z,315.00
2023-05-03T11:46:39.049Z,315.00
2023-05-03T11:47:38.959Z,315.00
2023-05-03T11:48:38.939Z,309.38
2023-05-03T11:49:38.775Z,309.38
2023-05-03T11:50:38.785Z,309.38
2023-05-03T11:51:38.778Z,303.75
2023-05-03T11:52:38.765Z,303.75
2023-05-03T11:53:38.770Z,303.75
2023-05-03T11:54:38.773Z,298.12
2023-05-03T11:55:38.717Z,298.12
2023-05-03T11:56:38.743Z,298.12
2023-05-03T11:57:38.723Z,292.50
2023-05-03T11:58:38.727Z,292.50
2023-05-03T11:59:38.720Z,292.50
2023-05-03T12:00:38.684Z,292.50
2023-05-03T12:01:38.811Z,292.50
2023-05-03T12:02:38.780Z,292.50
2023-05-03T12:03:38.785Z,292.50
2023-05-03T12:04:39.141Z,286.88
2023-05-03T12:05:39.387Z,286.88
2023-05-03T12:06:39.909Z,286.88
2023-05-03T12:07:38.803Z,286.88
2023-05-03T12:08:41.519Z,286.88
2023-05-03T12:09:40.356Z,286.88
2023-05-03T12:10:38.828Z,292.50
2023-05-03T12:11:39.834Z,292.50
2023-05-03T12:12:43.543Z,292.50
2023-05-03T12:13:41.198Z,286.88
2023-05-03T12:14:39.239Z,292.50
2023-05-03T12:15:40.610Z,286.88
2023-05-03T12:18:05.167Z,292.50
2023-05-03T12:19:04.793Z,292.50
2023-05-03T12:20:42.012Z,292.50
2023-05-03T12:21:30.888Z,292.50
2023-05-03T12:22:24.069Z,298.12
2023-05-03T12:23:05.829Z,298.12
2023-05-03T12:24:06.049Z,303.75
2023-05-03T12:25:04.904Z,303.75
2023-05-03T12:26:05.490Z,298.12
2023-05-03T12:27:04.528Z,298.12
2023-05-03T12:28:17.867Z,298.12
2023-05-03T12:29:06.695Z,298.12
2023-05-03T12:30:04.959Z,303.75
2023-05-03T12:31:05.380Z,303.75
2023-05-03T12:32:05.172Z,326.25
2023-05-03T12:33:05.268Z,326.25
2023-05-03T12:34:30.986Z,326.25
2023-05-03T12:35:08.174Z,326.25
2023-05-03T12:36:04.612Z,320.62
2023-05-03T12:37:05.749Z,320.62
2023-05-03T12:38:04.697Z,320.62
2023-05-03T12:39:05.777Z,320.62
2023-05-03T12:41:05.590Z,315.00
2023-05-03T12:42:06.751Z,315.00
2023-05-03T12:43:04.581Z,320.62
2023-05-03T12:44:04.412Z,320.62
2023-05-03T12:45:05.008Z,320.62
2023-05-03T12:47:09.560Z,320.62
2023-05-03T12:48:04.337Z,320.62
2023-05-03T12:50:06.311Z,326.25
2023-05-03T12:51:18.529Z,326.25